createdAt,value
2023-04-05T00:01:37.836Z,12.70
2023-04-05T00:08:23.973Z,11.20
2023-04-05T00:10:53.034Z,12.60
2023-04-05T00:13:22.018Z,11.00
2023-04-05T00:15:51.413Z,10.90
2023-04-05T00:18:24.010Z,10.80
2023-04-05T00:23:23.083Z,10.40
2023-04-05T00:25:51.590Z,9.90
2023-04-05T00:28:20.328Z,10.30
2023-04-05T00:30:48.760Z,10.70
2023-04-05T00:33:18.367Z,9.70
2023-04-05T00:35:47.040Z,9.60
2023-04-05T00:38:15.496Z,8.90
2023-04-05T00:40:43.800Z,9.70
2023-04-05T00:43:12.888Z,9.90
2023-04-05T00:45:42.412Z,8.90
2023-04-05T00:48:12.105Z,8.50
2023-04-05T00:50:41.904Z,8.90
2023-04-05T00:53:10.477Z,8.60
2023-04-05T00:55:39.494Z,8.30
2023-04-05T00:58:10.368Z,8.40
2023-04-05T01:00:39.168Z,8.50
2023-04-05T01:03:08.884Z,8.00
2023-04-05T01:05:56.173Z,8.30
2023-04-05T01:08:46.606Z,8.20
2023-04-05T01:11:14.872Z,7.80
2023-04-05T01:13:46.313Z,7.70
2023-04-05T01:16:14.811Z,8.20
2023-04-05T01:18:46.777Z,7.70
2023-04-05T01:21:39.170Z,7.20
2023-04-05T01:24:16.754Z,7.00
2023-04-05T01:26:57.414Z,8.20
2023-04-05T01:29:53.750Z,8.00
2023-04-05T01:32:46.600Z,7.80
2023-04-05T01:35:38.896Z,7.20
2023-04-05T01:38:07.880Z,7.80
2023-04-05T01:40:36.966Z,7.50
2023-04-05T01:43:15.205Z,6.70
2023-04-05T01:45:43.762Z,6.90
2023-04-05T01:48:13.204Z,6.30
2023-04-05T01:50:41.985Z,6.00
2023-04-05T01:53:10.956Z,7.90
2023-04-05T01:55:40.039Z,7.40
2023-04-05T01:58:10.003Z,7.20
2023-04-05T02:00:39.564Z,7.10
2023-04-05T02:03:08.425Z,7.10
2023-04-05T02:05:37.490Z,6.80
2023-04-05T02:08:06.789Z,5.90
2023-04-05T02:10:35.125Z,6.40
2023-04-05T02:13:03.380Z,7.00
2023-04-05T02:15:33.252Z,6.60
2023-04-05T02:18:02.838Z,6.30
2023-04-05T02:20:31.403Z,6.30
2023-04-05T02:23:00.716Z,6.00
2023-04-05T02:25:30.634Z,6.10
2023-04-05T02:28:00.551Z,7.20
2023-04-05T02:30:29.238Z,6.00
2023-04-05T02:32:58.150Z,6.70
2023-04-05T02:35:31.473Z,5.10
2023-04-05T02:38:00.250Z,5.80
2023-04-05T02:40:28.800Z,6.30
2023-04-05T02:42:57.144Z,6.00
2023-04-05T02:45:25.452Z,7.50
2023-04-05T02:47:54.880Z,7.50
2023-04-05T02:50:23.759Z,6.40
2023-04-05T02:52:52.632Z,6.40
2023-04-05T02:55:21.476Z,5.80
2023-04-05T02:57:49.848Z,6.90
2023-04-05T03:00:23.904Z,5.90
2023-04-05T03:02:53.448Z,6.20
2023-04-05T03:05:23.000Z,5.70
2023-04-05T03:07:53.719Z,6.20
2023-04-05T03:10:29.156Z,6.40
2023-04-05T03:13:03.272Z,5.50
2023-04-05T03:15:33.539Z,5.10
2023-04-05T03:18:05.858Z,6.40
2023-04-05T03:20:41.685Z,6.40
2023-04-05T03:23:16.804Z,5.40
2023-04-05T03:25:45.236Z,5.60
2023-04-05T03:28:18.452Z,6.30
2023-04-05T03:30:49.652Z,5.90
2023-04-05T03:33:20.691Z,5.40
2023-04-05T03:35:55.230Z,6.20
2023-04-05T03:38:24.194Z,6.40
2023-04-05T03:41:06.564Z,5.40
2023-04-05T03:43:36.968Z,5.50
2023-04-05T03:46:05.252Z,5.90
2023-04-05T03:48:34.554Z,6.40
2023-04-05T03:51:03.892Z,6.00
2023-04-05T03:53:33.110Z,6.20
2023-04-05T03:56:02.047Z,6.20
2023-04-05T03:58:46.667Z,5.90
2023-04-05T04:01:15.647Z,6.60
2023-04-05T04:03:45.142Z,6.70
2023-04-05T04:06:13.533Z,6.90
2023-04-05T04:08:43.135Z,6.00
2023-04-05T04:11:11.948Z,6.90
2023-04-05T04:13:41.802Z,5.60
2023-04-05T04:16:16.227Z,5.70
2023-04-05T04:18:56.631Z,5.50
2023-04-05T04:21:51.821Z,6.10
2023-04-05T04:27:36.253Z,5.70
2023-04-05T04:30:43.740Z,4.90
2023-04-05T04:33:27.818Z,5.90
2023-04-05T04:36:13.737Z,4.70
2023-04-05T04:39:07.415Z,5.30
2023-04-05T04:41:56.130Z,4.80
2023-04-05T04:45:04.394Z,5.20
2023-04-05T04:47:53.882Z,4.40
2023-04-05T04:50:45.724Z,4.00
2023-04-05T04:53:17.513Z,5.40
2023-04-05T04:55:50.674Z,4.70
2023-04-05T04:58:19.616Z,4.40
2023-04-05T05:00:54.385Z,4.90
2023-04-05T05:03:26.478Z,5.00
2023-04-05T05:05:57.212Z,4.50
2023-04-05T05:08:31.224Z,5.10
2023-04-05T05:10:59.750Z,4.30
2023-04-05T05:13:28.785Z,4.60
2023-04-05T05:15:58.171Z,4.70
2023-04-05T05:18:28.716Z,4.20
2023-04-05T05:20:56.906Z,3.90
2023-04-05T05:23:25.131Z,3.70
2023-04-05T05:25:58.788Z,3.80
2023-04-05T05:28:27.505Z,3.70
2023-04-05T05:30:55.941Z,4.00
2023-04-05T05:33:25.631Z,4.00
2023-04-05T05:35:53.893Z,4.60
2023-04-05T05:38:22.630Z,3.60
2023-04-05T05:40:57.780Z,4.70
2023-04-05T05:43:26.142Z,4.20
2023-04-05T05:45:54.263Z,3.80
2023-04-05T05:48:22.677Z,4.20
2023-04-05T05:50:51.038Z,3.70
2023-04-05T05:53:19.517Z,3.50
2023-04-05T05:55:47.848Z,3.30
2023-04-05T05:58:18.022Z,3.30
2023-04-05T06:00:49.186Z,3.30
2023-04-05T06:03:19.556Z,3.30
2023-04-05T06:05:53.010Z,3.50
2023-04-05T06:08:21.219Z,4.70
2023-04-05T06:10:49.957Z,4.00
2023-04-05T06:13:18.771Z,3.20
2023-04-05T06:15:48.816Z,3.30
2023-04-05T06:18:20.900Z,3.60
2023-04-05T06:20:49.451Z,3.60
2023-04-05T06:23:20.836Z,3.10
2023-04-05T06:25:49.827Z,3.00
2023-04-05T06:28:18.010Z,2.90
2023-04-05T06:30:47.142Z,3.20
2023-04-05T06:33:16.527Z,2.70
2023-04-05T06:35:44.881Z,2.50
2023-04-05T06:38:13.652Z,3.10
2023-04-05T06:40:41.975Z,2.50
2023-04-05T06:43:14.785Z,3.20
2023-04-05T06:45:43.401Z,2.80
2023-04-05T06:48:12.146Z,3.80
2023-04-05T06:50:41.973Z,3.10
2023-04-05T06:53:11.762Z,2.80
2023-04-05T06:55:43.508Z,3.40
2023-04-05T06:58:12.323Z,3.50
2023-04-05T07:00:51.315Z,3.30
2023-04-05T07:03:25.860Z,3.10
2023-04-05T07:05:59.253Z,3.00
2023-04-05T07:08:32.147Z,3.40
2023-04-05T07:11:02.860Z,3.20
2023-04-05T07:13:32.231Z,3.90
2023-04-05T07:16:01.862Z,4.30
2023-04-05T07:18:31.157Z,3.70
2023-04-05T07:21:04.065Z,4.20
2023-04-05T07:23:34.774Z,4.40
2023-04-05T07:26:05.064Z,4.30
2023-04-05T07:28:33.933Z,4.50
2023-04-05T07:31:02.707Z,4.40
2023-04-05T07:33:31.758Z,4.70
2023-04-05T07:35:59.989Z,4.40
2023-04-05T07:38:30.202Z,4.30
2023-04-05T07:40:59.007Z,5.10
2023-04-05T07:43:27.392Z,4.00
2023-04-05T07:46:02.296Z,4.60
2023-04-05T07:48:31.295Z,5.10
2023-04-05T07:51:05.815Z,4.80
2023-04-05T07:53:35.075Z,4.80
2023-04-05T07:56:14.049Z,4.80
2023-04-05T07:58:44.482Z,5.60
2023-04-05T08:01:12.721Z,6.30
2023-04-05T08:03:41.999Z,5.90
2023-04-05T08:06:11.920Z,5.60
2023-04-05T08:08:41.011Z,6.50
2023-04-05T08:11:12.103Z,5.30
2023-04-05T08:13:43.999Z,5.50
2023-04-05T08:18:42.618Z,6.20
2023-04-05T08:21:11.125Z,6.70
2023-04-05T08:23:41.283Z,6.40
2023-04-05T08:26:09.694Z,5.70
2023-04-05T08:28:38.362Z,6.80
2023-04-05T08:31:07.741Z,6.90
2023-04-05T08:33:37.512Z,7.00
2023-04-05T08:36:08.607Z,8.10
2023-04-05T08:38:37.060Z,6.80
2023-04-05T08:41:18.830Z,7.70
2023-04-05T08:44:00.446Z,6.40
2023-04-05T08:46:35.341Z,6.90
2023-04-05T08:49:08.114Z,7.90
2023-04-05T08:51:39.733Z,7.70
2023-04-05T08:54:10.104Z,7.10
2023-04-05T08:56:38.472Z,7.50
2023-04-05T08:59:08.136Z,8.20
2023-04-05T09:04:09.692Z,9.40
2023-04-05T09:06:38.099Z,9.80
2023-04-05T09:09:07.968Z,9.60
2023-04-05T09:11:36.678Z,7.80
2023-04-05T09:14:05.844Z,8.60
2023-04-05T09:16:40.742Z,9.30
2023-04-05T09:19:09.230Z,8.30
2023-04-05T09:22:05.954Z,9.10
2023-04-05T09:24:41.794Z,7.70
2023-04-05T09:27:10.638Z,7.70
2023-04-05T09:29:52.308Z,8.90
2023-04-05T09:32:25.430Z,8.70
2023-04-05T09:34:54.228Z,9.00
2023-04-05T09:37:28.804Z,8.70
2023-04-05T09:40:04.505Z,8.80
2023-04-05T09:42:44.994Z,9.40
2023-04-05T09:45:18.608Z,9.10
2023-04-05T09:48:03.071Z,9.80
2023-04-05T09:50:31.580Z,9.10
2023-04-05T09:53:10.680Z,9.10
2023-04-05T09:55:39.665Z,11.10
2023-04-05T09:58:13.228Z,10.20
2023-04-05T10:00:57.885Z,9.80
2023-04-05T10:03:33.032Z,9.60
2023-04-05T10:06:01.554Z,11.80
2023-04-05T10:08:32.997Z,11.80
2023-04-05T10:11:01.148Z,10.90
2023-04-05T10:13:29.490Z,9.40
2023-04-05T10:15:59.488Z,9.20
2023-04-05T10:18:39.290Z,10.80
2023-04-05T10:21:12.587Z,10.70
2023-04-05T10:23:42.294Z,11.10
2023-04-05T10:26:16.204Z,12.00
2023-04-05T10:28:47.632Z,10.90
2023-04-05T10:31:41.203Z,11.20
2023-04-05T10:34:16.114Z,13.10
2023-04-05T10:36:57.776Z,11.20
2023-04-05T10:39:36.102Z,11.80
2023-04-05T10:42:08.068Z,12.90
2023-04-05T10:44:36.818Z,12.70
2023-04-05T10:47:05.748Z,12.10
2023-04-05T10:49:37.833Z,13.00
2023-04-05T10:52:06.636Z,14.70
2023-04-05T10:54:37.227Z,15.20
2023-04-05T10:57:09.376Z,12.60
2023-04-05T10:59:44.098Z,13.40
2023-04-05T11:02:13.243Z,12.20
2023-04-05T11:04:42.817Z,13.40
2023-04-05T11:07:11.304Z,13.10
2023-04-05T11:09:40.886Z,14.80
2023-04-05T11:12:12.362Z,15.20
2023-04-05T11:14:41.145Z,14.70
2023-04-05T11:17:28.370Z,14.00
2023-04-05T11:20:04.680Z,14.20
2023-04-05T11:22:33.416Z,12.60
2023-04-05T11:25:03.393Z,14.20
2023-04-05T11:27:34.109Z,14.30
2023-04-05T11:30:07.051Z,12.60
2023-04-05T11:32:44.699Z,13.40
2023-04-05T11:35:12.869Z,13.80
2023-04-05T11:38:07.275Z,13.90
2023-04-05T11:40:36.763Z,14.10
2023-04-05T11:43:12.464Z,12.60
2023-04-05T11:45:44.104Z,13.60
2023-04-05T11:50:45.639Z,11.80
2023-04-05T11:53:15.951Z,13.50
2023-04-05T11:55:47.073Z,13.90
2023-04-05T11:58:24.478Z,14.30
2023-04-05T12:01:03.249Z,14.30
2023-04-05T12:03:34.668Z,14.40
2023-04-05T12:06:04.511Z,13.60
2023-04-05T12:08:43.520Z,14.50
2023-04-05T12:11:16.008Z,15.00
2023-04-05T12:13:45.519Z,13.10
2023-04-05T12:16:13.943Z,15.90
2023-04-05T12:18:42.857Z,14.90
2023-04-05T12:21:11.279Z,15.00
2023-04-05T12:23:39.507Z,14.70
2023-04-05T12:26:08.150Z,14.70
2023-04-05T12:28:56.734Z,13.30
2023-04-05T12:31:43.836Z,14.30
2023-04-05T12:34:13.978Z,14.30
2023-04-05T12:36:45.104Z,16.30
2023-04-05T12:39:16.503Z,14.00
2023-04-05T12:41:45.097Z,16.60
2023-04-05T12:44:30.667Z,17.30
2023-04-05T12:47:07.729Z,15.70
2023-04-05T12:49:39.431Z,15.80
2023-04-05T12:52:07.870Z,14.50
2023-04-05T12:54:36.881Z,15.60
2023-04-05T12:57:08.941Z,13.70
2023-04-05T12:59:38.981Z,13.70
2023-04-05T13:02:10.553Z,13.50
2023-04-05T13:04:38.823Z,14.00
2023-04-05T13:07:06.954Z,13.60
2023-04-05T13:09:37.165Z,14.60
2023-04-05T13:12:05.483Z,12.70
2023-04-05T13:14:36.743Z,14.70
2023-04-05T13:17:04.884Z,15.90
2023-04-05T13:19:33.304Z,14.20
2023-04-05T13:22:02.077Z,16.10
2023-04-05T13:24:30.585Z,16.80
2023-04-05T13:27:02.593Z,16.40
2023-04-05T13:29:31.257Z,15.70
2023-04-05T13:31:59.772Z,13.20
2023-04-05T13:34:28.006Z,15.20
2023-04-05T13:36:56.188Z,15.30
2023-04-05T13:39:25.367Z,14.70
2023-04-05T13:41:53.726Z,14.60
2023-04-05T13:44:26.455Z,15.10
2023-04-05T13:46:54.634Z,16.10
2023-04-05T13:49:22.826Z,14.80
2023-04-05T13:51:51.006Z,14.10
2023-04-05T13:54:19.251Z,13.50
2023-04-05T13:56:49.360Z,13.50
2023-04-05T13:59:19.713Z,13.80
2023-04-05T14:01:48.081Z,14.00
2023-04-05T14:04:16.529Z,13.80
2023-04-05T14:06:45.187Z,12.80
2023-04-05T14:09:13.700Z,11.90
2023-04-05T14:11:44.648Z,13.70
2023-04-05T14:14:12.825Z,13.60
2023-04-05T14:16:47.436Z,14.30
2023-04-05T14:19:18.566Z,13.30
2023-04-05T14:21:47.346Z,12.80
2023-04-05T14:24:21.940Z,13.20
2023-04-05T14:26:50.442Z,13.20
2023-04-05T14:29:18.807Z,13.70
2023-04-05T14:31:47.036Z,14.50
2023-04-05T14:34:15.452Z,14.20
2023-04-05T14:36:43.758Z,14.60
2023-04-05T14:39:12.860Z,14.60
2023-04-05T14:41:41.128Z,15.70
2023-04-05T14:44:09.784Z,14.00
2023-04-05T14:46:38.790Z,17.20
2023-04-05T14:49:07.049Z,16.20
2023-04-05T14:51:36.787Z,14.00
2023-04-05T14:54:06.341Z,18.40
2023-04-05T14:56:38.507Z,18.10
2023-04-05T14:59:06.769Z,15.70
2023-04-05T15:01:35.389Z,18.20
2023-04-05T15:04:04.266Z,16.80
2023-04-05T15:06:33.351Z,19.50
2023-04-05T15:09:01.994Z,20.00
2023-04-05T15:11:34.353Z,18.00
2023-04-05T15:14:02.596Z,19.70
2023-04-05T15:16:31.055Z,20.50
2023-04-05T15:18:59.802Z,18.70
2023-04-05T15:21:28.084Z,18.10
2023-04-05T15:23:56.195Z,18.70
2023-04-05T15:26:24.683Z,21.90
2023-04-05T15:28:52.955Z,21.10
2023-04-05T15:31:21.331Z,22.60
2023-04-05T15:33:49.571Z,21.70
2023-04-05T15:36:19.004Z,22.20
2023-04-05T15:38:47.711Z,23.30
2023-04-05T15:41:17.099Z,22.10
2023-04-05T15:43:45.790Z,23.70
2023-04-05T15:46:14.208Z,22.50
2023-04-05T15:48:43.914Z,22.10
2023-04-05T15:51:12.601Z,21.00
2023-04-05T15:53:40.912Z,23.40
2023-04-05T15:56:09.640Z,21.30
2023-04-05T15:58:38.142Z,21.60
2023-04-05T16:01:06.788Z,21.00
2023-04-05T16:03:37.119Z,22.60
2023-04-05T16:06:06.127Z,21.50
2023-04-05T16:08:36.790Z,23.70
2023-04-05T16:11:05.131Z,21.40
2023-04-05T16:13:40.604Z,25.00
2023-04-05T16:16:08.865Z,23.50
2023-04-05T16:18:37.244Z,22.70
2023-04-05T16:21:05.606Z,25.80
2023-04-05T16:23:34.599Z,23.70
2023-04-05T16:26:03.039Z,25.60
2023-04-05T16:28:32.118Z,27.60
2023-04-05T16:31:01.209Z,24.20
2023-04-05T16:33:31.902Z,26.20
2023-04-05T16:36:00.786Z,27.50
2023-04-05T16:38:29.381Z,26.90
2023-04-05T16:40:57.953Z,24.80
2023-04-05T16:43:26.844Z,25.60
2023-04-05T16:45:56.003Z,24.90
2023-04-05T16:48:25.161Z,24.10
2023-04-05T16:50:53.624Z,27.40
2023-04-05T16:53:22.626Z,25.70
2023-04-05T16:55:51.172Z,26.90
2023-04-05T16:58:19.738Z,27.70
2023-04-05T17:00:51.383Z,29.60
2023-04-05T17:05:51.264Z,27.20
2023-04-05T17:08:21.604Z,26.40
2023-04-05T17:10:52.885Z,24.60
2023-04-05T17:13:23.970Z,27.30
2023-04-05T17:15:52.371Z,27.80
2023-04-05T17:18:21.220Z,28.10
2023-04-05T17:20:53.135Z,30.70
2023-04-05T17:23:24.134Z,29.50
2023-04-05T17:25:52.482Z,26.80
2023-04-05T17:28:21.434Z,31.40
2023-04-05T17:30:52.818Z,28.50
2023-04-05T17:33:28.171Z,28.20
2023-04-05T17:35:58.622Z,30.60
2023-04-05T17:38:27.994Z,30.20
2023-04-05T17:40:57.763Z,30.50
2023-04-05T17:43:27.688Z,30.20
2023-04-05T17:45:55.960Z,30.90
2023-04-05T17:48:24.368Z,28.90
2023-04-05T17:50:53.670Z,28.60
2023-04-05T17:53:22.882Z,28.30
2023-04-05T17:55:51.276Z,28.80
2023-04-05T17:58:19.754Z,32.00
2023-04-05T18:00:52.415Z,32.00
2023-04-05T18:03:21.928Z,33.10
2023-04-05T18:05:53.087Z,32.90
2023-04-05T18:08:26.735Z,27.80
2023-04-05T18:10:57.039Z,30.80
2023-04-05T18:13:25.820Z,31.00
2023-04-05T18:15:57.027Z,33.60
2023-04-05T18:18:26.420Z,32.50
2023-04-05T18:20:55.510Z,32.20
2023-04-05T18:23:27.439Z,30.00
2023-04-05T18:25:57.837Z,34.50
2023-04-05T18:28:26.551Z,32.50
2023-04-05T18:30:56.668Z,30.90
2023-04-05T18:33:28.702Z,32.80
2023-04-05T18:35:58.383Z,32.60
2023-04-05T18:38:27.022Z,32.60
2023-04-05T18:41:03.351Z,32.80
2023-04-05T18:43:33.020Z,33.10
2023-04-05T18:46:01.694Z,31.10
2023-04-05T18:48:31.568Z,31.00
2023-04-05T18:50:59.900Z,34.70
2023-04-05T18:53:28.198Z,34.80
2023-04-05T18:55:56.736Z,36.60
2023-04-05T18:58:25.078Z,29.90
2023-04-05T19:01:04.250Z,34.90
2023-04-05T19:03:33.484Z,32.30
2023-04-05T19:06:04.299Z,34.70
2023-04-05T19:08:33.606Z,34.60
2023-04-05T19:11:02.324Z,31.70
2023-04-05T19:13:31.106Z,32.60
2023-04-05T19:16:00.626Z,31.40
2023-04-05T19:18:30.061Z,34.60
2023-04-05T19:21:00.923Z,36.00
2023-04-05T19:23:30.231Z,36.20
2023-04-05T19:25:58.616Z,35.60
2023-04-05T19:28:29.834Z,36.40
2023-04-05T19:30:59.027Z,37.40
2023-04-05T19:33:30.049Z,32.60
2023-04-05T19:35:59.045Z,38.80
2023-04-05T19:38:27.502Z,41.20
2023-04-05T19:40:58.087Z,35.10
2023-04-05T19:43:31.736Z,37.30
2023-04-05T19:46:00.559Z,40.40
2023-04-05T19:48:35.020Z,36.50
2023-04-05T19:53:53.817Z,36.70
2023-04-05T19:56:28.575Z,37.20
2023-04-05T19:58:59.521Z,36.10
2023-04-05T20:01:38.253Z,36.80
2023-04-05T20:04:17.367Z,33.90
2023-04-05T20:06:56.859Z,31.70
2023-04-05T20:09:26.305Z,34.20
2023-04-05T20:11:56.011Z,36.60
2023-04-05T20:14:29.175Z,34.50
2023-04-05T20:16:58.213Z,34.60
2023-04-05T20:19:31.059Z,33.80
2023-04-05T20:22:03.049Z,34.20
2023-04-05T20:24:31.542Z,34.20
2023-04-05T20:27:06.752Z,33.70
2023-04-05T20:29:36.428Z,31.80
2023-04-05T20:32:05.711Z,32.10
2023-04-05T20:34:35.537Z,29.00
2023-04-05T20:37:10.003Z,31.20
2023-04-05T20:39:38.746Z,32.10
2023-04-05T20:42:09.490Z,30.60
2023-04-05T20:47:07.480Z,31.10
2023-04-05T20:49:36.187Z,29.80
2023-04-05T20:52:07.996Z,31.00
2023-04-05T20:54:36.911Z,31.30
2023-04-05T20:57:05.665Z,29.80
2023-04-05T20:59:34.157Z,32.60
2023-04-05T21:02:02.782Z,31.50
2023-04-05T21:04:32.062Z,30.60
2023-04-05T21:07:00.807Z,29.20
2023-04-05T21:09:29.150Z,28.90
2023-04-05T21:11:58.673Z,27.30
2023-04-05T21:14:28.157Z,29.30
2023-04-05T21:16:56.279Z,31.90
2023-04-05T21:19:24.628Z,31.30
2023-04-05T21:21:52.819Z,30.30
2023-04-05T21:24:21.168Z,27.50
2023-04-05T21:26:49.302Z,28.90
2023-04-05T21:29:18.991Z,27.00
2023-04-05T21:31:48.838Z,29.20
2023-04-05T21:34:17.074Z,25.90
2023-04-05T21:36:49.272Z,26.90
2023-04-05T21:39:17.478Z,26.80
2023-04-05T21:41:45.715Z,27.50
2023-04-05T21:44:13.989Z,24.50
2023-04-05T21:46:43.403Z,29.90
2023-04-05T21:49:16.297Z,26.10
2023-04-05T21:51:44.896Z,26.50
2023-04-05T21:54:13.121Z,25.50
2023-04-05T21:56:43.539Z,24.60
2023-04-05T21:59:11.937Z,26.70
2023-04-05T22:01:43.082Z,25.20
2023-04-05T22:04:11.270Z,23.80
2023-04-05T22:06:40.724Z,25.50
2023-04-05T22:09:09.917Z,22.80
2023-04-05T22:11:38.392Z,23.10
2023-04-05T22:14:06.702Z,25.70
2023-04-05T22:16:35.144Z,24.70
2023-04-05T22:19:07.182Z,24.80
2023-04-05T22:21:38.449Z,24.10
2023-04-05T22:24:10.217Z,24.00
2023-04-05T22:29:07.476Z,25.10
2023-04-05T22:31:40.435Z,21.50
2023-04-05T22:34:08.998Z,23.10
2023-04-05T22:36:37.380Z,23.10
2023-04-05T22:39:06.264Z,22.60
2023-04-05T22:41:34.815Z,23.90
2023-04-05T22:44:05.099Z,22.90
2023-04-05T22:46:33.844Z,23.10
2023-04-05T22:49:02.106Z,20.70
2023-04-05T22:51:31.874Z,22.70
2023-04-05T22:54:00.176Z,21.00
2023-04-05T22:56:28.572Z,20.90
2023-04-05T22:58:56.789Z,21.90
2023-04-05T23:01:31.953Z,21.90
2023-04-05T23:04:00.826Z,21.10
2023-04-05T23:06:30.211Z,21.10
2023-04-05T23:08:58.527Z,19.70
2023-04-05T23:11:27.760Z,20.40
2023-04-05T23:13:56.314Z,19.80
2023-04-05T23:16:24.585Z,20.00
2023-04-05T23:18:54.544Z,19.80
2023-04-05T23:21:22.952Z,20.00
2023-04-05T23:23:52.558Z,20.50
2023-04-05T23:26:21.259Z,19.10
2023-04-05T23:28:49.503Z,18.90
2023-04-05T23:31:17.731Z,18.10
2023-04-05T23:33:46.981Z,21.20
2023-04-05T23:36:22.072Z,20.20
2023-04-05T23:38:50.568Z,18.70
2023-04-05T23:41:18.968Z,17.90
2023-04-05T23:43:48.231Z,20.40
2023-04-05T23:46:16.803Z,18.90
2023-04-05T23:48:45.683Z,18.50
2023-04-05T23:51:14.304Z,20.10
2023-04-05T23:53:42.537Z,20.20
2023-04-05T23:56:10.987Z,20.90
2023-04-05T23:58:42.347Z,21.00
